Time;durP1;ratioP1;P1;durP2;ratioP2;P2;SDS_P1;SDS_P2;PMS_P1;PMS_P2;Temp;Humidity;BMP_temperature;BMP_pressure;BME280_temperature;BME280_humidity;BME280_pressure;Samples;Min_cycle;Max_cycle;Signal;HPM_P1;HPM_P2
2022/07/28 00:00:46;;;;;;;16.05;14.25;;;;;;;;;;5031759;28;20025;-78
2022/07/28 00:03:12;;;;;;;25.23;19.45;;;;;;;;;;5031471;28;20025;-77
2022/07/28 00:05:39;;;;;;;21.08;18.80;;;;;;;;;;5031494;28;20021;-77
2022/07/28 00:08:06;;;;;;;25.10;19.58;;;;;;;;;;5031215;28;20559;-77
2022/07/28 00:10:32;;;;;;;22.95;17.85;;;;;;;;;;5017421;28;20028;-79
2022/07/28 00:12:59;;;;;;;18.33;15.38;;;;;;;;;;5031271;28;20031;-77
2022/07/28 00:15:25;;;;;;;19.65;14.10;;;;;;;;;;5017259;28;20018;-78
2022/07/28 00:17:51;;;;;;;14.98;13.38;;;;;;;;;;5032205;28;20029;-76
2022/07/28 00:20:17;;;;;;;15.45;13.68;;;;;;;;;;5032423;28;20025;-76
2022/07/28 00:22:44;;;;;;;14.80;13.15;;;;;;;;;;5031186;28;20388;-77
2022/07/28 00:25:11;;;;;;;13.48;12.05;;;;;;;;;;5032065;28;20412;-76
2022/07/28 00:27:37;;;;;;;15.60;11.93;;;;;;;;;;5011542;28;20022;-76
2022/07/28 00:30:07;;;;;;;18.80;14.07;;;;;;;;;;5027746;28;20148;-77
2022/07/28 00:32:33;;;;;;;19.30;16.88;;;;;;;;;;5027575;28;20029;-77
2022/07/28 00:34:59;;;;;;;16.40;13.18;;;;;;;;;;5022779;28;20101;-78
2022/07/28 00:37:25;;;;;;;16.35;12.38;;;;;;;;;;5030630;28;20354;-78
2022/07/28 00:39:51;;;;;;;14.18;12.73;;;;;;;;;;5030710;28;20060;-77
2022/07/28 00:42:18;;;;;;;18.30;13.43;;;;;;;;;;5030654;28;20022;-76
2022/07/28 00:44:44;;;;;;;18.73;13.13;;;;;;;;;;5030367;28;20029;-77
2022/07/28 00:47:10;;;;;;;14.60;13.00;;;;;;;;;;5031901;28;20084;-78
2022/07/28 00:49:37;;;;;;;17.08;14.60;;;;;;;;;;5031795;28;20057;-76
2022/07/28 00:52:03;;;;;;;18.63;15.32;;;;;;;;;;5032288;28;20090;-77
2022/07/28 00:54:30;;;;;;;22.15;15.98;;;;;;;;;;5030484;28;20021;-77
2022/07/28 00:56:56;;;;;;;19.90;17.00;;;;;;;;;;5031511;28;20022;-77
2022/07/28 00:59:22;;;;;;;21.02;16.00;;;;;;;;;;5020916;28;20045;-77
2022/07/28 01:01:48;;;;;;;20.60;16.73;;;;;;;;;;5029058;28;20022;-75
2022/07/28 01:04:15;;;;;;;19.17;15.90;;;;;;;;;;5031837;28;20071;-76
2022/07/28 01:06:43;;;;;;;19.10;16.48;;;;;;;;;;5031459;28;20024;-76
2022/07/28 01:09:09;;;;;;;20.90;17.88;;;;;;;;;;5026646;28;20049;-77
2022/07/28 01:11:47;;;;;;;18.92;16.65;;;;;;;;;;5024374;28;20021;-77
2022/07/28 01:14:31;;;;;;;25.05;17.70;;;;;;;;;;5019158;28;20096;-78
2022/07/28 01:17:09;;;;;;;34.78;18.42;;;;;;;;;;5031251;28;20048;-76
2022/07/28 01:19:45;;;;;;;21.15;18.63;;;;;;;;;;5031535;28;20033;-76
2022/07/28 01:22:13;;;;;;;21.98;18.55;;;;;;;;;;5015996;28;20377;-77
2022/07/28 01:24:50;;;;;;;22.75;18.30;;;;;;;;;;5020872;28;20491;-77
2022/07/28 01:27:22;;;;;;;19.65;17.25;;;;;;;;;;5026999;28;20123;-77
2022/07/28 01:29:55;;;;;;;23.58;17.35;;;;;;;;;;5029455;28;20051;-77
2022/07/28 01:32:24;;;;;;;20.95;18.48;;;;;;;;;;5030979;28;20408;-76
2022/07/28 01:35:09;;;;;;;21.92;18.17;;;;;;;;;;5029861;28;20064;-76
2022/07/28 01:37:39;;;;;;;21.45;19.10;;;;;;;;;;5031064;28;20021;-77
2022/07/28 01:40:06;;;;;;;21.10;18.08;;;;;;;;;;5026414;28;20069;-76
2022/07/28 01:42:41;;;;;;;25.50;17.75;;;;;;;;;;5025802;28;20018;-76
2022/07/28 01:45:08;;;;;;;22.67;19.52;;;;;;;;;;5031527;28;20025;-76
2022/07/28 01:47:34;;;;;;;23.50;20.75;;;;;;;;;;5029987;28;20017;-77
2022/07/28 01:50:02;;;;;;;24.52;19.63;;;;;;;;;;5031281;28;20489;-78
2022/07/28 01:52:29;;;;;;;24.08;18.80;;;;;;;;;;5031250;28;20069;-76
2022/07/28 01:54:57;;;;;;;23.67;18.05;;;;;;;;;;5029654;28;20032;-76
2022/07/28 01:57:24;;;;;;;24.17;19.20;;;;;;;;;;5029896;28;20017;-77
2022/07/28 01:59:50;;;;;;;30.02;23.83;;;;;;;;;;5030956;28;20112;-76
2022/07/28 02:02:18;;;;;;;23.65;21.20;;;;;;;;;;5031303;28;20522;-77
2022/07/28 02:04:44;;;;;;;26.17;20.35;;;;;;;;;;5029736;28;20072;-79
2022/07/28 02:07:11;;;;;;;23.67;20.60;;;;;;;;;;5029817;28;20076;-77
2022/07/28 02:09:37;;;;;;;26.02;20.55;;;;;;;;;;5031129;28;20050;-77
2022/07/28 02:12:04;;;;;;;20.38;18.27;;;;;;;;;;5030840;28;20028;-77
2022/07/28 02:14:31;;;;;;;26.10;19.30;;;;;;;;;;5031174;28;20503;-84
2022/07/28 02:16:58;;;;;;;28.80;18.05;;;;;;;;;;5028220;28;20148;-77
2022/07/28 02:19:25;;;;;;;26.27;18.83;;;;;;;;;;5029665;28;20033;-75
2022/07/28 02:21:52;;;;;;;21.83;18.58;;;;;;;;;;5029528;28;20380;-77
2022/07/28 02:24:19;;;;;;;24.75;21.00;;;;;;;;;;5029644;28;20366;-77
2022/07/28 02:26:50;;;;;;;21.30;17.65;;;;;;;;;;5029634;28;20033;-77
2022/07/28 02:29:17;;;;;;;23.23;18.95;;;;;;;;;;5029779;28;20018;-75
2022/07/28 02:31:50;;;;;;;20.58;18.38;;;;;;;;;;5029909;28;20026;-76
2022/07/28 02:34:19;;;;;;;20.90;16.90;;;;;;;;;;5030071;28;20036;-77
2022/07/28 02:36:57;;;;;;;22.30;17.48;;;;;;;;;;5029644;28;20056;-75
2022/07/28 02:39:26;;;;;;;21.05;17.25;;;;;;;;;;5029710;28;20034;-77
2022/07/28 02:41:57;;;;;;;18.05;16.15;;;;;;;;;;5030811;28;20060;-76
2022/07/28 02:44:27;;;;;;;22.60;17.85;;;;;;;;;;5032889;28;20561;-76
2022/07/28 02:46:54;;;;;;;24.25;18.63;;;;;;;;;;5034532;28;20465;-78
2022/07/28 02:49:24;;;;;;;23.17;17.85;;;;;;;;;;5034252;28;20052;-75
2022/07/28 02:51:51;;;;;;;21.50;18.23;;;;;;;;;;5032920;28;20152;-76
2022/07/28 02:54:19;;;;;;;19.85;16.88;;;;;;;;;;5032925;28;20022;-76
2022/07/28 02:56:49;;;;;;;19.65;15.43;;;;;;;;;;5032868;28;20873;-77
2022/07/28 02:59:16;;;;;;;23.05;17.13;;;;;;;;;;5032796;28;20385;-76
2022/07/28 03:01:43;;;;;;;18.27;14.75;;;;;;;;;;5032481;28;20021;-77
2022/07/28 03:04:10;;;;;;;22.90;15.10;;;;;;;;;;5034196;28;20022;-76
2022/07/28 03:06:36;;;;;;;18.58;15.07;;;;;;;;;;5032147;28;20129;-76
2022/07/28 03:09:02;;;;;;;17.52;13.48;;;;;;;;;;5033870;28;20052;-77
2022/07/28 03:11:28;;;;;;;18.63;14.20;;;;;;;;;;5032703;28;20029;-77
2022/07/28 03:13:54;;;;;;;15.45;13.70;;;;;;;;;;5033330;28;20517;-77
2022/07/28 03:16:20;;;;;;;16.92;13.70;;;;;;;;;;5032621;28;20053;-77
2022/07/28 03:18:46;;;;;;;17.33;14.32;;;;;;;;;;5033255;28;20560;-75
2022/07/28 03:21:12;;;;;;;16.63;13.98;;;;;;;;;;5032539;28;20112;-77
2022/07/28 03:23:43;;;;;;;14.60;12.98;;;;;;;;;;5032399;28;20142;-78
2022/07/28 03:26:32;;;;;;;17.38;12.98;;;;;;;;;;5033586;28;20373;-77
2022/07/28 03:28:59;;;;;;;19.98;11.52;;;;;;;;;;5026362;28;20030;-78
2022/07/28 03:31:27;;;;;;;17.02;13.27;;;;;;;;;;5033659;28;20473;-78
2022/07/28 03:33:53;;;;;;;14.20;12.20;;;;;;;;;;5033222;28;20128;-78
2022/07/28 03:36:28;;;;;;;15.35;11.35;;;;;;;;;;5033531;28;20076;-78
2022/07/28 03:39:00;;;;;;;12.88;11.35;;;;;;;;;;5033097;28;20041;-76
2022/07/28 03:41:26;;;;;;;13.18;11.55;;;;;;;;;;5031987;28;20113;-78
2022/07/28 03:43:53;;;;;;;15.98;11.55;;;;;;;;;;5032860;28;20053;-77
2022/07/28 03:46:20;;;;;;;14.88;12.75;;;;;;;;;;5031655;28;20385;-77
2022/07/28 03:48:46;;;;;;;20.90;12.93;;;;;;;;;;5031628;28;20021;-77
2022/07/28 03:51:12;;;;;;;17.00;12.07;;;;;;;;;;5031900;28;20473;-76
2022/07/28 03:53:39;;;;;;;16.45;11.90;;;;;;;;;;5032326;28;20024;-76
2022/07/28 03:56:05;;;;;;;13.85;10.88;;;;;;;;;;5031787;28;20021;-76
2022/07/28 03:58:31;;;;;;;13.25;11.70;;;;;;;;;;5032090;28;20029;-78
2022/07/28 04:00:57;;;;;;;20.83;12.13;;;;;;;;;;5033504;28;20083;-76
2022/07/28 04:03:23;;;;;;;16.83;11.95;;;;;;;;;;5033186;28;20025;-76
2022/07/28 04:05:49;;;;;;;14.75;11.35;;;;;;;;;;5033719;28;20026;-76
2022/07/28 04:08:15;;;;;;;14.27;11.38;;;;;;;;;;5031484;28;20036;-76
2022/07/28 04:10:41;;;;;;;13.85;11.35;;;;;;;;;;5031422;28;20047;-78
2022/07/28 04:13:08;;;;;;;15.38;11.40;;;;;;;;;;5031383;28;20018;-78
2022/07/28 04:15:34;;;;;;;19.20;10.15;;;;;;;;;;5031313;28;20087;-77
2022/07/28 04:18:00;;;;;;;17.42;10.73;;;;;;;;;;5028028;28;20029;-80
2022/07/28 04:20:26;;;;;;;12.02;10.73;;;;;;;;;;5029191;28;20028;-78
2022/07/28 04:22:53;;;;;;;14.63;11.88;;;;;;;;;;5032678;28;20100;-78
2022/07/28 04:25:20;;;;;;;14.25;10.95;;;;;;;;;;5030949;28;20017;-78
2022/07/28 04:27:46;;;;;;;13.45;11.68;;;;;;;;;;5031208;28;20025;-77
2022/07/28 04:30:15;;;;;;;16.17;12.07;;;;;;;;;;5032328;28;20022;-78
2022/07/28 04:32:42;;;;;;;14.40;12.43;;;;;;;;;;5030810;28;20025;-78
2022/07/28 04:35:08;;;;;;;12.07;10.15;;;;;;;;;;5030932;28;20099;-77
2022/07/28 04:37:34;;;;;;;14.32;11.60;;;;;;;;;;5030858;28;20017;-77
2022/07/28 04:40:00;;;;;;;15.98;10.63;;;;;;;;;;5032160;28;20040;-78
2022/07/28 04:42:26;;;;;;;17.75;12.00;;;;;;;;;;5031164;28;20045;-78
2022/07/28 04:44:52;;;;;;;13.82;10.55;;;;;;;;;;5032495;28;20017;-78
2022/07/28 04:47:18;;;;;;;13.20;10.23;;;;;;;;;;5032336;28;20018;-79
2022/07/28 04:49:45;;;;;;;14.82;11.07;;;;;;;;;;5031698;28;20096;-76
2022/07/28 04:52:11;;;;;;;16.70;11.73;;;;;;;;;;5022758;28;20018;-77
2022/07/28 04:54:37;;;;;;;22.50;11.77;;;;;;;;;;5024680;28;20040;-77
2022/07/28 04:57:04;;;;;;;13.10;10.35;;;;;;;;;;5032291;28;20071;-77
2022/07/28 04:59:30;;;;;;;12.32;10.07;;;;;;;;;;5030709;28;21083;-78
2022/07/28 05:01:57;;;;;;;16.65;10.50;;;;;;;;;;5030456;28;20441;-76
2022/07/28 05:04:23;;;;;;;15.48;10.43;;;;;;;;;;5030325;28;20080;-77
2022/07/28 05:06:50;;;;;;;17.00;10.70;;;;;;;;;;5031366;28;20056;-79
2022/07/28 05:09:16;;;;;;;13.85;11.82;;;;;;;;;;5030363;28;20060;-79
2022/07/28 05:11:42;;;;;;;12.43;10.73;;;;;;;;;;5030261;28;20022;-76
2022/07/28 05:14:08;;;;;;;15.50;12.45;;;;;;;;;;5032107;28;20032;-77
2022/07/28 05:16:35;;;;;;;15.20;11.20;;;;;;;;;;5031881;28;20033;-78
2022/07/28 05:19:01;;;;;;;12.88;9.23;;;;;;;;;;5015983;28;20459;-78
2022/07/28 05:21:27;;;;;;;11.77;9.15;;;;;;;;;;5031212;28;20047;-76
2022/07/28 05:23:53;;;;;;;12.95;9.90;;;;;;;;;;5029956;28;20029;-79
2022/07/28 05:26:19;;;;;;;15.82;9.63;;;;;;;;;;5031216;28;20062;-79
2022/07/28 05:28:45;;;;;;;15.32;11.10;;;;;;;;;;5030979;28;20022;-78
2022/07/28 05:31:11;;;;;;;14.73;9.43;;;;;;;;;;5031487;28;20021;-78
2022/07/28 05:33:37;;;;;;;12.63;9.80;;;;;;;;;;5029941;28;20029;-77
2022/07/28 05:36:04;;;;;;;13.10;9.25;;;;;;;;;;5029711;28;20018;-77
2022/07/28 05:38:30;;;;;;;12.75;9.30;;;;;;;;;;5031294;28;20037;-79
2022/07/28 05:40:56;;;;;;;11.13;7.97;;;;;;;;;;5027815;28;20029;-78
2022/07/28 05:43:22;;;;;;;16.73;9.73;;;;;;;;;;5031358;28;20380;-76
2022/07/28 05:45:48;;;;;;;12.65;8.27;;;;;;;;;;5031027;28;20061;-77
2022/07/28 05:48:18;;;;;;;11.45;8.30;;;;;;;;;;5030926;28;20048;-77
2022/07/28 05:50:44;;;;;;;9.77;6.65;;;;;;;;;;5031545;28;20061;-77
2022/07/28 05:53:10;;;;;;;12.55;6.90;;;;;;;;;;5030532;28;20472;-78
2022/07/28 05:55:36;;;;;;;10.25;5.93;;;;;;;;;;5029667;28;20376;-78
2022/07/28 05:58:02;;;;;;;10.70;5.70;;;;;;;;;;5029483;28;20101;-78
2022/07/28 06:00:28;;;;;;;10.40;7.72;;;;;;;;;;5029566;28;20138;-78
2022/07/28 06:02:55;;;;;;;11.05;8.93;;;;;;;;;;5029644;28;20026;-77
2022/07/28 06:05:22;;;;;;;13.95;9.77;;;;;;;;;;5025198;28;20018;-78
2022/07/28 06:07:49;;;;;;;10.23;8.27;;;;;;;;;;5033564;28;20474;-77
2022/07/28 06:10:17;;;;;;;12.10;9.65;;;;;;;;;;5059206;28;20049;-79
2022/07/28 06:12:44;;;;;;;11.23;9.80;;;;;;;;;;5029418;28;20370;-76
2022/07/28 06:15:13;;;;;;;13.23;8.68;;;;;;;;;;5030709;28;20524;-77
2022/07/28 06:17:40;;;;;;;14.70;9.60;;;;;;;;;;5025948;28;20025;-77
2022/07/28 06:20:06;;;;;;;13.18;10.40;;;;;;;;;;5027402;28;20030;-76
2022/07/28 06:22:44;;;;;;;14.77;8.77;;;;;;;;;;5034435;28;20055;-76
2022/07/28 06:25:17;;;;;;;15.52;9.93;;;;;;;;;;5033352;28;20087;-77
2022/07/28 06:27:45;;;;;;;12.52;9.23;;;;;;;;;;5019891;28;20021;-75
2022/07/28 06:30:11;;;;;;;13.30;10.13;;;;;;;;;;5034681;28;20027;-77
2022/07/28 06:32:37;;;;;;;12.45;9.23;;;;;;;;;;5034254;28;20488;-77
2022/07/28 06:35:03;;;;;;;12.60;8.90;;;;;;;;;;5034188;28;20472;-77
2022/07/28 06:37:29;;;;;;;12.23;8.90;;;;;;;;;;5034396;28;20021;-77
2022/07/28 06:39:55;;;;;;;10.63;9.40;;;;;;;;;;5032671;28;20121;-78
2022/07/28 06:42:22;;;;;;;12.93;10.13;;;;;;;;;;5034026;28;20526;-78
2022/07/28 06:44:49;;;;;;;12.77;8.65;;;;;;;;;;5032385;28;20067;-76
2022/07/28 06:47:16;;;;;;;10.35;7.88;;;;;;;;;;5032680;28;20091;-77
2022/07/28 06:49:42;;;;;;;9.68;7.68;;;;;;;;;;5030560;28;20028;-77
2022/07/28 06:52:08;;;;;;;12.52;7.70;;;;;;;;;;5034025;28;20025;-77
2022/07/28 06:54:34;;;;;;;13.20;7.68;;;;;;;;;;5033978;28;20030;-78
2022/07/28 06:57:00;;;;;;;12.63;7.40;;;;;;;;;;5032544;28;20080;-77
2022/07/28 06:59:26;;;;;;;14.25;10.38;;;;;;;;;;5033676;28;20136;-77
2022/07/28 07:01:52;;;;;;;12.23;9.60;;;;;;;;;;5032626;28;20068;-76
2022/07/28 07:04:18;;;;;;;10.43;7.07;;;;;;;;;;5032581;28;20017;-76
2022/07/28 07:06:44;;;;;;;9.65;6.85;;;;;;;;;;5033300;28;20018;-77
2022/07/28 07:09:10;;;;;;;12.88;8.20;;;;;;;;;;5034143;28;20083;-77
2022/07/28 07:11:36;;;;;;;7.55;5.68;;;;;;;;;;5033687;28;20051;-76
2022/07/28 07:14:02;;;;;;;11.85;7.95;;;;;;;;;;5033645;28;20021;-76
2022/07/28 07:16:29;;;;;;;8.05;6.20;;;;;;;;;;5032435;28;20025;-76
2022/07/28 07:18:55;;;;;;;8.07;6.05;;;;;;;;;;5033578;28;20040;-76
2022/07/28 07:21:21;;;;;;;8.75;6.63;;;;;;;;;;5033822;28;20028;-75
2022/07/28 07:23:47;;;;;;;7.68;5.85;;;;;;;;;;5033407;28;20084;-77
2022/07/28 07:26:13;;;;;;;9.40;6.07;;;;;;;;;;5029009;28;20068;-77
2022/07/28 07:28:41;;;;;;;10.35;7.05;;;;;;;;;;5026356;28;20026;-77
2022/07/28 07:31:07;;;;;;;15.27;6.95;;;;;;;;;;5026318;28;20029;-80
2022/07/28 07:33:33;;;;;;;8.10;5.55;;;;;;;;;;5026417;28;20018;-79
2022/07/28 07:35:59;;;;;;;11.85;6.05;;;;;;;;;;5033686;28;20022;-77
2022/07/28 07:38:25;;;;;;;9.35;6.05;;;;;;;;;;5032922;28;20061;-79
2022/07/28 07:40:51;;;;;;;12.02;6.93;;;;;;;;;;5032634;28;20519;-78
2022/07/28 07:43:18;;;;;;;10.05;5.88;;;;;;;;;;5032545;28;20109;-78
2022/07/28 07:45:44;;;;;;;8.52;5.78;;;;;;;;;;5033592;28;20167;-78
2022/07/28 07:48:10;;;;;;;12.07;6.32;;;;;;;;;;5032634;28;20504;-78
2022/07/28 07:50:37;;;;;;;7.95;5.35;;;;;;;;;;5033517;28;20033;-78
2022/07/28 07:53:03;;;;;;;7.88;6.13;;;;;;;;;;5031781;28;20017;-78
2022/07/28 07:55:29;;;;;;;10.52;6.47;;;;;;;;;;5033449;28;20025;-78
2022/07/28 07:57:56;;;;;;;9.10;7.13;;;;;;;;;;5033027;28;20036;-77
2022/07/28 08:00:22;;;;;;;9.10;5.95;;;;;;;;;;5031468;28;20040;-77
2022/07/28 08:02:49;;;;;;;15.55;4.75;;;;;;;;;;5020408;28;20053;-78
2022/07/28 08:05:16;;;;;;;10.18;6.03;;;;;;;;;;5030015;28;20067;-78
2022/07/28 08:07:42;;;;;;;10.20;5.20;;;;;;;;;;5032916;28;20018;-77
2022/07/28 08:10:08;;;;;;;7.28;5.43;;;;;;;;;;5033071;28;20049;-79
2022/07/28 08:12:35;;;;;;;9.20;5.22;;;;;;;;;;5031583;28;20495;-78
2022/07/28 08:15:01;;;;;;;14.77;5.30;;;;;;;;;;5032843;28;20018;-79
2022/07/28 08:17:27;;;;;;;7.72;6.22;;;;;;;;;;5025514;28;20025;-78
2022/07/28 08:19:53;;;;;;;7.53;5.20;;;;;;;;;;5040246;28;20384;-78
2022/07/28 08:22:19;;;;;;;8.80;6.15;;;;;;;;;;5031332;28;20029;-78
2022/07/28 08:24:45;;;;;;;9.52;6.20;;;;;;;;;;5032760;28;20063;-77
2022/07/28 08:27:11;;;;;;;10.02;7.13;;;;;;;;;;5031469;28;20469;-77
2022/07/28 08:29:37;;;;;;;7.57;5.07;;;;;;;;;;5031611;28;20048;-78
2022/07/28 08:32:04;;;;;;;12.57;7.47;;;;;;;;;;5031128;28;20018;-78
2022/07/28 08:34:31;;;;;;;7.90;5.28;;;;;;;;;;5032571;28;20112;-78
2022/07/28 08:36:57;;;;;;;8.23;4.80;;;;;;;;;;5032399;28;20234;-78
2022/07/28 08:39:23;;;;;;;9.98;5.43;;;;;;;;;;5016032;28;20038;-78
2022/07/28 08:42:04;;;;;;;7.10;5.68;;;;;;;;;;5032712;28;20104;-78
2022/07/28 08:44:38;;;;;;;8.10;5.70;;;;;;;;;;5032753;28;21603;-78
2022/07/28 08:47:07;;;;;;;8.30;5.63;;;;;;;;;;5032627;28;20013;-78
2022/07/28 08:49:37;;;;;;;8.60;4.95;;;;;;;;;;5031031;28;20022;-78
2022/07/28 08:52:03;;;;;;;11.70;5.15;;;;;;;;;;5024405;28;20292;-77
2022/07/28 08:54:29;;;;;;;8.25;4.72;;;;;;;;;;5023931;28;20022;-78
2022/07/28 08:56:57;;;;;;;8.32;5.80;;;;;;;;;;5032188;28;20132;-78
2022/07/28 08:59:24;;;;;;;6.88;5.00;;;;;;;;;;5028134;28;20029;-79
2022/07/28 09:01:50;;;;;;;5.43;4.05;;;;;;;;;;5028494;28;20053;-79
2022/07/28 09:04:16;;;;;;;7.63;5.53;;;;;;;;;;5032308;28;20100;-79
2022/07/28 09:06:42;;;;;;;6.90;5.10;;;;;;;;;;5030456;28;20220;-78
2022/07/28 09:09:09;;;;;;;6.35;4.18;;;;;;;;;;5031956;28;20516;-78
2022/07/28 09:11:36;;;;;;;10.60;5.00;;;;;;;;;;5030680;28;20021;-79
2022/07/28 09:14:02;;;;;;;7.40;4.75;;;;;;;;;;5031600;28;20116;-80
2022/07/28 09:16:28;;;;;;;7.47;4.50;;;;;;;;;;5030276;28;20064;-78
2022/07/28 09:18:54;;;;;;;6.65;5.53;;;;;;;;;;5030708;28;20033;-78
2022/07/28 09:21:23;;;;;;;11.30;6.35;;;;;;;;;;5027583;28;20029;-79
2022/07/28 09:23:49;;;;;;;7.95;4.53;;;;;;;;;;5012584;28;20021;-78
2022/07/28 09:26:16;;;;;;;6.65;4.28;;;;;;;;;;5030143;28;20060;-79
2022/07/28 09:28:53;;;;;;;23.17;19.90;;;;;;;;;;5030252;28;20025;-79
2022/07/28 09:31:19;;;;;;;8.50;5.03;;;;;;;;;;5031647;28;20048;-78
2022/07/28 09:34:01;;;;;;;7.47;4.00;;;;;;;;;;5031071;28;20044;-78
2022/07/28 09:36:28;;;;;;;6.30;4.15;;;;;;;;;;5030150;28;20040;-80
2022/07/28 09:38:55;;;;;;;10.50;7.13;;;;;;;;;;5031272;28;20033;-78
2022/07/28 09:41:21;;;;;;;7.35;4.50;;;;;;;;;;5030095;28;20515;-80
2022/07/28 09:43:53;;;;;;;8.60;4.70;;;;;;;;;;5030113;28;20071;-79
2022/07/28 09:46:20;;;;;;;8.02;3.80;;;;;;;;;;5030879;28;20108;-77
2022/07/28 09:48:49;;;;;;;8.63;6.25;;;;;;;;;;5030133;28;20025;-78
2022/07/28 09:51:26;;;;;;;5.60;3.85;;;;;;;;;;5031674;28;20504;-78
2022/07/28 09:53:53;;;;;;;8.88;4.78;;;;;;;;;;5034212;28;20425;-78
2022/07/28 09:56:19;;;;;;;7.80;4.93;;;;;;;;;;5035399;28;20104;-77
2022/07/28 09:58:56;;;;;;;5.07;3.88;;;;;;;;;;5021331;28;20457;-77
2022/07/28 10:01:23;;;;;;;6.05;4.53;;;;;;;;;;5035439;28;20047;-78
2022/07/28 10:03:54;;;;;;;6.47;4.30;;;;;;;;;;5035160;28;20028;-78
2022/07/28 10:06:28;;;;;;;7.47;3.38;;;;;;;;;;5035710;28;20022;-78
2022/07/28 10:08:55;;;;;;;8.63;5.82;;;;;;;;;;5033437;28;20056;-79
2022/07/28 10:11:28;;;;;;;12.07;5.72;;;;;;;;;;5033844;28;20025;-78
2022/07/28 10:14:02;;;;;;;9.43;4.78;;;;;;;;;;5033951;28;20071;-78
2022/07/28 10:16:32;;;;;;;6.75;3.53;;;;;;;;;;5035101;28;20027;-78
2022/07/28 10:18:58;;;;;;;7.10;4.35;;;;;;;;;;5035154;28;20037;-78
2022/07/28 10:21:25;;;;;;;7.15;4.82;;;;;;;;;;5034164;28;20094;-78
2022/07/28 10:24:04;;;;;;;7.55;3.85;;;;;;;;;;5034846;28;20030;-79
2022/07/28 10:26:42;;;;;;;9.85;3.67;;;;;;;;;;5034229;28;20473;-79
2022/07/28 10:29:12;;;;;;;5.40;4.13;;;;;;;;;;5035112;28;20063;-78
2022/07/28 10:31:45;;;;;;;8.07;3.95;;;;;;;;;;5036424;28;20025;-78
2022/07/28 10:34:14;;;;;;;4.75;3.20;;;;;;;;;;5031825;28;20014;-78
2022/07/28 10:36:41;;;;;;;4.07;3.05;;;;;;;;;;5023928;28;20029;-77
2022/07/28 10:39:16;;;;;;;6.05;4.25;;;;;;;;;;5034105;28;20037;-78
2022/07/28 10:41:42;;;;;;;7.10;3.10;;;;;;;;;;5033379;28;20036;-78
2022/07/28 10:44:17;;;;;;;6.65;3.63;;;;;;;;;;5034533;28;20022;-78
2022/07/28 10:46:44;;;;;;;4.70;3.22;;;;;;;;;;5034281;28;20028;-77
2022/07/28 10:49:10;;;;;;;12.32;5.72;;;;;;;;;;5032973;28;20021;-79
2022/07/28 10:51:40;;;;;;;4.80;3.65;;;;;;;;;;5034176;28;20013;-78
2022/07/28 10:54:15;;;;;;;8.80;4.20;;;;;;;;;;5032913;28;20024;-79
2022/07/28 10:56:47;;;;;;;7.35;5.88;;;;;;;;;;5033882;28;20041;-78
2022/07/28 10:59:32;;;;;;;5.13;4.05;;;;;;;;;;5034348;28;20079;-79
2022/07/28 11:01:58;;;;;;;11.27;3.90;;;;;;;;;;5033565;28;20022;-80
2022/07/28 11:04:43;;;;;;;6.57;4.35;;;;;;;;;;5032818;28;20113;-78
2022/07/28 11:07:10;;;;;;;8.57;3.70;;;;;;;;;;5034153;28;20105;-79
2022/07/28 11:09:36;;;;;;;9.55;3.58;;;;;;;;;;5033779;28;20505;-78
2022/07/28 11:12:03;;;;;;;7.10;5.32;;;;;;;;;;5035748;28;20018;-78
2022/07/28 11:14:33;;;;;;;6.88;3.42;;;;;;;;;;5034405;28;20032;-79
2022/07/28 11:16:59;;;;;;;10.82;4.68;;;;;;;;;;5034107;28;20014;-79
2022/07/28 11:19:50;;;;;;;5.20;4.30;;;;;;;;;;5032811;28;20037;-79
2022/07/28 11:24:57;;;;;;;5.35;3.85;;;;;;;;;;5034893;28;20366;-80
2022/07/28 11:27:42;;;;;;;6.57;4.75;;;;;;;;;;5033079;28;20021;-79
2022/07/28 11:30:08;;;;;;;9.88;4.45;;;;;;;;;;5034120;28;20036;-79
2022/07/28 11:32:50;;;;;;;8.98;4.20;;;;;;;;;;5027561;28;20072;-78
2022/07/28 11:35:26;;;;;;;6.55;3.33;;;;;;;;;;5041781;28;20061;-77
2022/07/28 11:38:01;;;;;;;5.45;3.13;;;;;;;;;;5032542;28;20028;-77
2022/07/28 11:40:32;;;;;;;4.85;3.65;;;;;;;;;;5032669;28;20481;-78
2022/07/28 11:43:18;;;;;;;4.50;3.80;;;;;;;;;;5032172;28;20022;-78
2022/07/28 11:45:44;;;;;;;5.85;3.25;;;;;;;;;;5030302;28;20037;-79
2022/07/28 11:48:24;;;;;;;10.27;3.70;;;;;;;;;;5033436;28;20065;-77
2022/07/28 11:51:03;;;;;;;10.52;4.97;;;;;;;;;;5033522;28;20018;-78
2022/07/28 11:53:44;;;;;;;7.28;4.47;;;;;;;;;;5033246;28;20030;-77
2022/07/28 11:56:11;;;;;;;10.35;8.45;;;;;;;;;;5030628;28;20025;-79
2022/07/28 11:58:37;;;;;;;7.50;5.90;;;;;;;;;;5032279;28;20028;-78
2022/07/28 12:01:10;;;;;;;5.50;3.20;;;;;;;;;;5032480;28;20044;-78
2022/07/28 12:03:39;;;;;;;5.95;3.33;;;;;;;;;;5031091;28;20029;-78
2022/07/28 12:06:05;;;;;;;16.13;12.80;;;;;;;;;;5028699;28;20033;-78
2022/07/28 12:08:50;;;;;;;23.50;20.77;;;;;;;;;;5032492;28;21169;-78
2022/07/28 12:11:16;;;;;;;10.43;5.53;;;;;;;;;;5031831;28;20022;-82
2022/07/28 12:13:42;;;;;;;7.00;3.75;;;;;;;;;;5017056;28;20026;-77
2022/07/28 12:16:09;;;;;;;8.25;3.55;;;;;;;;;;5019451;28;20030;-77
2022/07/28 12:18:35;;;;;;;7.97;3.72;;;;;;;;;;5029407;28;20021;-76
2022/07/28 12:21:01;;;;;;;5.90;3.15;;;;;;;;;;5032385;28;20021;-77
2022/07/28 12:23:36;;;;;;;4.95;4.00;;;;;;;;;;5030937;28;20516;-77
2022/07/28 12:26:03;;;;;;;9.23;3.25;;;;;;;;;;5032757;28;20525;-78
2022/07/28 12:28:33;;;;;;;7.80;3.13;;;;;;;;;;5031074;28;20078;-79
2022/07/28 12:31:12;;;;;;;6.57;3.17;;;;;;;;;;5032464;28;20017;-78
2022/07/28 12:33:38;;;;;;;8.75;5.72;;;;;;;;;;5019246;28;20624;-78
2022/07/28 12:36:04;;;;;;;6.50;3.72;;;;;;;;;;5030916;28;20029;-78
2022/07/28 12:38:31;;;;;;;4.20;2.80;;;;;;;;;;5030782;28;20468;-77
2022/07/28 12:40:57;;;;;;;11.70;9.95;;;;;;;;;;5032333;28;20115;-76
2022/07/28 12:43:29;;;;;;;6.40;4.40;;;;;;;;;;5032520;28;20021;-78
2022/07/28 12:45:55;;;;;;;5.38;3.22;;;;;;;;;;5032024;28;20369;-76
2022/07/28 12:48:21;;;;;;;9.18;4.13;;;;;;;;;;5030751;28;20030;-76
2022/07/28 12:50:48;;;;;;;7.47;3.55;;;;;;;;;;5031765;28;20509;-76
2022/07/28 12:53:16;;;;;;;4.72;3.40;;;;;;;;;;5032677;28;20036;-77
2022/07/28 12:55:47;;;;;;;15.48;13.13;;;;;;;;;;5031677;28;20053;-78
2022/07/28 12:58:27;;;;;;;12.95;10.45;;;;;;;;;;5030425;28;20027;-79
2022/07/28 13:00:53;;;;;;;14.85;5.82;;;;;;;;;;5032188;28;20103;-79
2022/07/28 13:03:21;;;;;;;11.05;6.43;;;;;;;;;;5031412;28;20049;-78
2022/07/28 13:06:20;;;;;;;7.80;5.35;;;;;;;;;;5031404;28;20026;-77
2022/07/28 13:08:41;;;;;;;11.50;7.10;;;;;;;;;;5029942;28;20068;-78
2022/07/28 13:11:07;;;;;;;12.02;10.68;;;;;;;;;;5031502;28;20556;-77
2022/07/28 13:13:46;;;;;;;10.32;5.70;;;;;;;;;;5031567;28;20048;-78
2022/07/28 13:16:21;;;;;;;11.23;6.95;;;;;;;;;;5030406;28;20021;-79
2022/07/28 13:18:52;;;;;;;13.80;9.23;;;;;;;;;;5029827;28;20499;-78
2022/07/28 13:21:40;;;;;;;14.20;6.53;;;;;;;;;;5029998;28;20034;-78
2022/07/28 13:24:08;;;;;;;12.13;7.95;;;;;;;;;;5030844;28;20054;-78
2022/07/28 13:26:34;;;;;;;11.07;9.98;;;;;;;;;;5031109;28;20481;-79
2022/07/28 13:29:01;;;;;;;7.10;6.38;;;;;;;;;;5031339;28;20018;-78
2022/07/28 13:31:27;;;;;;;16.20;12.13;;;;;;;;;;5031619;28;20029;-78
2022/07/28 13:33:53;;;;;;;6.10;3.08;;;;;;;;;;5031223;28;20384;-76
2022/07/28 13:36:19;;;;;;;5.97;3.30;;;;;;;;;;5031229;28;20021;-75
2022/07/28 13:38:45;;;;;;;5.60;4.03;;;;;;;;;;5030649;28;20129;-75
2022/07/28 13:41:11;;;;;;;7.95;4.97;;;;;;;;;;5025776;28;20018;-76
2022/07/28 13:43:38;;;;;;;8.00;4.07;;;;;;;;;;5021480;28;20030;-77
2022/07/28 13:46:04;;;;;;;6.03;5.30;;;;;;;;;;5030772;28;20508;-76
2022/07/28 13:48:31;;;;;;;8.10;4.05;;;;;;;;;;5030953;28;20036;-78
2022/07/28 13:50:57;;;;;;;4.78;3.45;;;;;;;;;;5030167;28;20014;-78
2022/07/28 13:53:23;;;;;;;11.73;9.65;;;;;;;;;;5030894;28;20021;-78
2022/07/28 13:55:51;;;;;;;7.22;3.83;;;;;;;;;;5029698;28;20069;-77
2022/07/28 13:58:17;;;;;;;8.13;6.13;;;;;;;;;;5031188;28;20104;-78
2022/07/28 14:00:43;;;;;;;7.85;6.90;;;;;;;;;;5031011;28;20037;-76
2022/07/28 14:03:09;;;;;;;9.38;8.02;;;;;;;;;;5016372;28;20046;-74
2022/07/28 14:05:35;;;;;;;9.25;6.93;;;;;;;;;;5035389;28;20126;-76
2022/07/28 14:08:01;;;;;;;6.70;4.35;;;;;;;;;;5030811;28;20026;-75
2022/07/28 14:10:27;;;;;;;5.97;4.38;;;;;;;;;;5024900;28;20026;-76
2022/07/28 14:12:54;;;;;;;9.75;6.22;;;;;;;;;;5052972;28;20111;-77
2022/07/28 14:15:20;;;;;;;6.53;4.32;;;;;;;;;;5030990;28;20076;-76
2022/07/28 14:17:46;;;;;;;8.25;4.63;;;;;;;;;;5030582;28;20529;-77
2022/07/28 14:20:13;;;;;;;6.10;3.55;;;;;;;;;;5026590;28;20486;-77
2022/07/28 14:22:39;;;;;;;7.13;3.30;;;;;;;;;;5030625;28;20021;-78
2022/07/28 14:25:05;;;;;;;8.32;3.22;;;;;;;;;;5029396;28;20026;-76
2022/07/28 14:27:32;;;;;;;6.45;3.15;;;;;;;;;;5030693;28;20104;-76
2022/07/28 14:29:58;;;;;;;7.50;3.70;;;;;;;;;;5029432;28;20057;-75
2022/07/28 14:32:24;;;;;;;4.95;4.32;;;;;;;;;;5031088;28;20064;-77
2022/07/28 14:34:50;;;;;;;7.95;6.45;;;;;;;;;;5029252;28;20370;-77
2022/07/28 14:37:16;;;;;;;8.18;4.53;;;;;;;;;;5029796;28;20045;-76
2022/07/28 14:39:42;;;;;;;6.38;4.20;;;;;;;;;;5034148;28;20037;-77